CSAV Rio Grey — A8UC7 — position and weather

sailwx.info

Track history (hours):
 
Tides and Currents Weather Stations Pressure Air Temp Water Temp Dewpoint Dewpoint Depression Visibility Wind Speed Wind Dir Waves Ship Positions

CSAV Rio Grey

Last reported at 2018-Apr-19 15:40 UTC. Time now 2018-Apr-19 17:04 UTC.
Position N 48°11' W 123°12'.

Length 199 m; draft 8.8 m.

Type: Cargo ship. MMSI: 636014472.

Date/timePositionNaut miles runAvg speedWind from/ knotsBaromVisibWave heightAir tempDewpointWater temp
2018-Apr-19 15:40N 48°11' W 123°12'317.4
2018-Apr-19 15:30N 48°12' W 123°08'817.0
2018-Apr-19 15:00N 48°12' W 122°55'816.5
2018-Apr-19 14:30N 48°09' W 122°43'815.8
2018-Apr-19 14:00N 48°02' W 122°38'816.3
2018-Apr-19 13:31N 47°56' W 122°31'816.6
2018-Apr-19 13:01N 47°48' W 122°27'815.9
2018-Apr-19 12:31N 47°40' W 122°27'816.4
2018-Apr-19 12:00N 47°32' W 122°26'816.5
2018-Apr-19 11:31N 47°24' W 122°22'713.9
2018-Apr-19 11:00N 47°18' W 122°27'3 6.4
2018-Apr-19 10:30N 47°16' W 122°24'1 1.4
2018-Apr-19 09:59N 47°16' W 122°23'0 0.0
2018-Apr-19 09:26N 47°15' W 122°23'0 0.0
2018-Apr-19 08:56N 47°15' W 122°23'0 0.0
2018-Apr-19 08:26N 47°15' W 122°23'0 0.0
2018-Apr-19 07:56N 47°15' W 122°23'0 0.0
2018-Apr-19 06:38N 47°15' W 122°23'0 0.0
2018-Apr-19 06:26N 47°15' W 122°23'0 0.0
2018-Apr-19 05:56N 47°15' W 122°23'0 0.0
2018-Apr-19 04:38N 47°15' W 122°23'0 0.0
2018-Apr-19 04:20N 47°15' W 122°23'0 0.0
2018-Apr-19 03:56N 47°15' W 122°23'0 0.0
2018-Apr-19 03:20N 47°15' W 122°23'0 0.0
2018-Apr-19 02:56N 47°15' W 122°23'0 0.0
2018-Apr-19 02:26N 47°15' W 122°23'0 0.0
2018-Apr-19 01:50N 47°15' W 122°23'0 0.0
2018-Apr-19 01:26N 47°15' W 122°23'0 0.0
2018-Apr-19 00:50N 47°15' W 122°23'0 0.0
2018-Apr-19 00:26N 47°15' W 122°23'0 0.0
2018-Apr-18 23:56N 47°15' W 122°23'0 0.0
2018-Apr-18 23:26N 47°15' W 122°23'0 0.0
2018-Apr-18 22:56N 47°15' W 122°23'0 0.0
2018-Apr-18 22:26N 47°15' W 122°23'0 0.0
2018-Apr-18 21:50N 47°15' W 122°23'0 0.0
2018-Apr-18 21:20N 47°15' W 122°23'0 0.0
2018-Apr-18 20:56N 47°15' W 122°23'0 0.0
2018-Apr-18 20:26N 47°15' W 122°23'0 0.0
2018-Apr-18 19:56N 47°15' W 122°23'0 0.0
2018-Apr-18 19:26N 47°15' W 122°23'0 0.0
2018-Apr-18 16:47N 47°15' W 122°23'0 0.0
2018-Apr-18 16:23N 47°15' W 122°23'0 0.0
2018-Apr-18 15:59N 47°15' W 122°23'0 0.0
2018-Apr-18 15:29N 47°15' W 122°23'0 0.0
2018-Apr-18 14:47N 47°15' W 122°23'0 0.0
2018-Apr-18 14:29N 47°15' W 122°23'0 0.0
2018-Apr-18 13:59N 47°15' W 122°23'0 0.0
2018-Apr-18 13:20N 47°16' W 122°23'1 1.9
2018-Apr-18 13:01N 47°16' W 122°24'2 4.4
2018-Apr-18 12:30N 47°17' W 122°26'3 5.8
2018-Apr-18 12:00N 47°20' W 122°27'612.7
2018-Apr-18 11:30N 47°26' W 122°24'816.8
2018-Apr-18 11:00N 47°34' W 122°27'816.6
2018-Apr-18 10:30N 47°43' W 122°27'816.6
2018-Apr-18 10:00N 47°51' W 122°28'815.8
2018-Apr-18 09:30N 47°58' W 122°35'1216.5
2018-Apr-18 08:47N 48°08' W 122°43'517.4
2018-Apr-18 08:30N 48°11' W 122°49'916.6
2018-Apr-18 08:00N 48°12' W 123°02'815.8
2018-Apr-18 07:29N 48°12' W 123°14'612.5
2018-Apr-18 06:59N 48°10' W 123°23'3 6.3
2018-Apr-18 06:29N 48°11' W 123°28'3 6.0
2018-Apr-18 06:00N 48°13' W 123°31'4 8.9
2018-Apr-18 05:30N 48°13' W 123°38'8 9.4
2018-Apr-18 04:41N 48°13' W 123°49'210.2
2018-Apr-18 04:30N 48°14' W 123°52'510.9
2018-Apr-18 04:00N 48°15' W 124°00'611.6
2018-Apr-18 03:30N 48°17' W 124°08'611.2
2018-Apr-18 03:00N 48°20' W 124°16'612.6
2018-Apr-18 02:30N 48°22' W 124°24'714.2
2018-Apr-18 02:00N 48°26' W 124°34'714.1
2018-Apr-18 01:31N 48°29' W 124°43'713.7
2018-Apr-18 01:00N 48°28' W 124°54'714.0
2018-Apr-18 00:30N 48°29' W 125°04'714.4
2018-Apr-18 00:00N 48°29' W 125°15'714.1
2018-Apr-17 23:31N 48°29' W 125°26'713.5
2018-Apr-17 23:00N 48°29' W 125°36'713.6
2018-Apr-17 22:30N 48°28' W 125°46'713.9
2018-Apr-17 22:00N 48°28' W 125°57'713.7
2018-Apr-17 21:29N 48°28' W 126°07'713.6
2018-Apr-17 21:00N 48°28' W 126°17'5 9.0
2018-Apr-17 20:26N 48°29' W 126°25'511.7
2018-Apr-17 20:00N 48°29' W 126°33'  
Track history (hours):
 
Tides and Currents Weather Stations Pressure Air Temp Water Temp Dewpoint Dewpoint Depression Visibility Wind Speed Wind Dir Waves Ship Positions

CSAV Rio Grey

Last reported at 2018-Apr-19 15:40 UTC. Time now 2018-Apr-19 17:04 UTC.
Position N 48°11' W 123°12'.

Length 199 m; draft 8.8 m.

Type: Cargo ship. MMSI: 636014472.

Date/timePositionNaut miles runAvg speedWind from/ knotsBaromVisibWave heightAir tempDewpointWater temp
2018-Apr-19 15:40N 48°11' W 123°12'317.4
2018-Apr-19 15:30N 48°12' W 123°08'817.0
2018-Apr-19 15:00N 48°12' W 122°55'816.5
2018-Apr-19 14:30N 48°09' W 122°43'815.8
2018-Apr-19 14:00N 48°02' W 122°38'816.3
2018-Apr-19 13:31N 47°56' W 122°31'816.6
2018-Apr-19 13:01N 47°48' W 122°27'815.9
2018-Apr-19 12:31N 47°40' W 122°27'816.4
2018-Apr-19 12:00N 47°32' W 122°26'816.5
2018-Apr-19 11:31N 47°24' W 122°22'713.9
2018-Apr-19 11:00N 47°18' W 122°27'3 6.4
2018-Apr-19 10:30N 47°16' W 122°24'1 1.4
2018-Apr-19 09:59N 47°16' W 122°23'0 0.0
2018-Apr-19 09:26N 47°15' W 122°23'0 0.0
2018-Apr-19 08:56N 47°15' W 122°23'0 0.0
2018-Apr-19 08:26N 47°15' W 122°23'0 0.0
2018-Apr-19 07:56N 47°15' W 122°23'0 0.0
2018-Apr-19 06:38N 47°15' W 122°23'0 0.0
2018-Apr-19 06:26N 47°15' W 122°23'0 0.0
2018-Apr-19 05:56N 47°15' W 122°23'0 0.0
2018-Apr-19 04:38N 47°15' W 122°23'0 0.0
2018-Apr-19 04:20N 47°15' W 122°23'0 0.0
2018-Apr-19 03:56N 47°15' W 122°23'0 0.0
2018-Apr-19 03:20N 47°15' W 122°23'0 0.0
2018-Apr-19 02:56N 47°15' W 122°23'0 0.0
2018-Apr-19 02:26N 47°15' W 122°23'0 0.0
2018-Apr-19 01:50N 47°15' W 122°23'0 0.0
2018-Apr-19 01:26N 47°15' W 122°23'0 0.0
2018-Apr-19 00:50N 47°15' W 122°23'0 0.0
2018-Apr-19 00:26N 47°15' W 122°23'0 0.0
2018-Apr-18 23:56N 47°15' W 122°23'0 0.0
2018-Apr-18 23:26N 47°15' W 122°23'0 0.0
2018-Apr-18 22:56N 47°15' W 122°23'0 0.0
2018-Apr-18 22:26N 47°15' W 122°23'0 0.0
2018-Apr-18 21:50N 47°15' W 122°23'0 0.0
2018-Apr-18 21:20N 47°15' W 122°23'0 0.0
2018-Apr-18 20:56N 47°15' W 122°23'0 0.0
2018-Apr-18 20:26N 47°15' W 122°23'0 0.0
2018-Apr-18 19:56N 47°15' W 122°23'0 0.0
2018-Apr-18 19:26N 47°15' W 122°23'0 0.0
2018-Apr-18 16:47N 47°15' W 122°23'0 0.0
2018-Apr-18 16:23N 47°15' W 122°23'0 0.0
2018-Apr-18 15:59N 47°15' W 122°23'0 0.0
2018-Apr-18 15:29N 47°15' W 122°23'0 0.0
2018-Apr-18 14:47N 47°15' W 122°23'0 0.0
2018-Apr-18 14:29N 47°15' W 122°23'0 0.0
2018-Apr-18 13:59N 47°15' W 122°23'0 0.0
2018-Apr-18 13:20N 47°16' W 122°23'1 1.9
2018-Apr-18 13:01N 47°16' W 122°24'2 4.4
2018-Apr-18 12:30N 47°17' W 122°26'3 5.8
2018-Apr-18 12:00N 47°20' W 122°27'612.7
2018-Apr-18 11:30N 47°26' W 122°24'816.8
2018-Apr-18 11:00N 47°34' W 122°27'816.6
2018-Apr-18 10:30N 47°43' W 122°27'816.6
2018-Apr-18 10:00N 47°51' W 122°28'815.8
2018-Apr-18 09:30N 47°58' W 122°35'1216.5
2018-Apr-18 08:47N 48°08' W 122°43'517.4
2018-Apr-18 08:30N 48°11' W 122°49'916.6
2018-Apr-18 08:00N 48°12' W 123°02'815.8
2018-Apr-18 07:29N 48°12' W 123°14'612.5
2018-Apr-18 06:59N 48°10' W 123°23'3 6.3
2018-Apr-18 06:29N 48°11' W 123°28'3 6.0
2018-Apr-18 06:00N 48°13' W 123°31'4 8.9
2018-Apr-18 05:30N 48°13' W 123°38'8 9.4
2018-Apr-18 04:41N 48°13' W 123°49'210.2
2018-Apr-18 04:30N 48°14' W 123°52'510.9
2018-Apr-18 04:00N 48°15' W 124°00'611.6
2018-Apr-18 03:30N 48°17' W 124°08'611.2
2018-Apr-18 03:00N 48°20' W 124°16'612.6
2018-Apr-18 02:30N 48°22' W 124°24'714.2
2018-Apr-18 02:00N 48°26' W 124°34'714.1
2018-Apr-18 01:31N 48°29' W 124°43'713.7
2018-Apr-18 01:00N 48°28' W 124°54'714.0
2018-Apr-18 00:30N 48°29' W 125°04'714.4
2018-Apr-18 00:00N 48°29' W 125°15'714.1
2018-Apr-17 23:31N 48°29' W 125°26'713.5
2018-Apr-17 23:00N 48°29' W 125°36'713.6
2018-Apr-17 22:30N 48°28' W 125°46'713.9
2018-Apr-17 22:00N 48°28' W 125°57'713.7
2018-Apr-17 21:29N 48°28' W 126°07'713.6
2018-Apr-17 21:00N 48°28' W 126°17'5 9.0
2018-Apr-17 20:26N 48°29' W 126°25'511.7
2018-Apr-17 20:00N 48°29' W 126°33'  

Dump ship's entire track history